National Geographic Sea Bird — WAK8004 — position and weather

sailwx.info

Track history (hours):
 
Tides and Currents Weather Stations Pressure Air Temp Water Temp Dewpoint Dewpoint Depression Visibility Wind Speed Wind Dir Waves Ship Positions

National Geographic Sea Bird

Owner: Lindblad Expeditions, Inc., SEATTLE, WA. More information available from US FCC via Universal Licensing System and Coast Guard Vessel Documentation Center.

Last reported at 2018-Jan-11 03:32 UTC. Time now 2018-Jan-20 09:17 UTC.
Position N 24°19' W 110°22'.
Warning: this ship's position is 9 days out of date.

Length 50 m; draft 2.7 m.

Type: Passenger vessel. MMSI: 366892350.

Date/timePositionNaut miles runAvg speedWind from/ knotsBaromVisibWave heightAir tempDewpointWater temp
2018-Jan-11 03:32N 24°19' W 110°22'110.0
2018-Jan-11 03:27N 24°18' W 110°22'4 9.8
2018-Jan-11 03:00N 24°14' W 110°20'3 6.7
2018-Jan-11 02:29N 24°11' W 110°18'1 2.8
2018-Jan-11 01:59N 24°10' W 110°19'0 0.0
2018-Jan-11 01:30N 24°10' W 110°19'0 0.0
2018-Jan-11 00:59N 24°10' W 110°19'0 0.0
2018-Jan-11 00:29N 24°10' W 110°19'0 0.0
2018-Jan-10 23:59N 24°10' W 110°19'0 0.0
2018-Jan-10 23:30N 24°10' W 110°19'0 0.0
2018-Jan-10 23:00N 24°10' W 110°19'0 0.0
2018-Jan-10 22:30N 24°10' W 110°19'0 0.0
2018-Jan-10 21:57N 24°10' W 110°19'0 0.0
2018-Jan-10 21:30N 24°10' W 110°19'0 0.0
2018-Jan-10 21:00N 24°10' W 110°19'0 0.0
2018-Jan-10 20:29N 24°10' W 110°19'0 0.0
2018-Jan-10 20:00N 24°10' W 110°19'0 0.0
2018-Jan-10 19:29N 24°10' W 110°19'0 0.0
2018-Jan-10 18:59N 24°10' W 110°19'0 0.0
2018-Jan-10 18:29N 24°10' W 110°19'0 0.0
2018-Jan-10 18:00N 24°10' W 110°19'0 0.0
2018-Jan-10 17:29N 24°10' W 110°19'0 0.0
2018-Jan-10 17:00N 24°10' W 110°19'0 0.0
2018-Jan-10 16:30N 24°10' W 110°19'0 0.0
2018-Jan-10 16:00N 24°10' W 110°19'0 0.0
2018-Jan-10 15:29N 24°10' W 110°19'0 0.0
2018-Jan-10 15:00N 24°10' W 110°19'0 0.0
2018-Jan-10 14:27N 24°10' W 110°19'0 0.0
2018-Jan-10 13:59N 24°10' W 110°19'1 2.5
2018-Jan-10 13:30N 24°11' W 110°19'2 4.3
2018-Jan-10 12:59N 24°13' W 110°18'4 6.5
2018-Jan-10 12:27N 24°16' W 110°21'5 8.0
2018-Jan-10 11:47N 24°21' W 110°20'  
2018-Jan-08 03:57N 24°22' W 110°23'510.0
2018-Jan-08 03:29N 24°17' W 110°21'  
Track history (hours):
 
Tides and Currents Weather Stations Pressure Air Temp Water Temp Dewpoint Dewpoint Depression Visibility Wind Speed Wind Dir Waves Ship Positions

National Geographic Sea Bird

Owner: Lindblad Expeditions, Inc., SEATTLE, WA. More information available from US FCC via Universal Licensing System and Coast Guard Vessel Documentation Center.

Last reported at 2018-Jan-11 03:32 UTC. Time now 2018-Jan-20 09:17 UTC.
Position N 24°19' W 110°22'.
Warning: this ship's position is 9 days out of date.

Length 50 m; draft 2.7 m.

Type: Passenger vessel. MMSI: 366892350.

Date/timePositionNaut miles runAvg speedWind from/ knotsBaromVisibWave heightAir tempDewpointWater temp
2018-Jan-11 03:32N 24°19' W 110°22'110.0
2018-Jan-11 03:27N 24°18' W 110°22'4 9.8
2018-Jan-11 03:00N 24°14' W 110°20'3 6.7
2018-Jan-11 02:29N 24°11' W 110°18'1 2.8
2018-Jan-11 01:59N 24°10' W 110°19'0 0.0
2018-Jan-11 01:30N 24°10' W 110°19'0 0.0
2018-Jan-11 00:59N 24°10' W 110°19'0 0.0
2018-Jan-11 00:29N 24°10' W 110°19'0 0.0
2018-Jan-10 23:59N 24°10' W 110°19'0 0.0
2018-Jan-10 23:30N 24°10' W 110°19'0 0.0
2018-Jan-10 23:00N 24°10' W 110°19'0 0.0
2018-Jan-10 22:30N 24°10' W 110°19'0 0.0
2018-Jan-10 21:57N 24°10' W 110°19'0 0.0
2018-Jan-10 21:30N 24°10' W 110°19'0 0.0
2018-Jan-10 21:00N 24°10' W 110°19'0 0.0
2018-Jan-10 20:29N 24°10' W 110°19'0 0.0
2018-Jan-10 20:00N 24°10' W 110°19'0 0.0
2018-Jan-10 19:29N 24°10' W 110°19'0 0.0
2018-Jan-10 18:59N 24°10' W 110°19'0 0.0
2018-Jan-10 18:29N 24°10' W 110°19'0 0.0
2018-Jan-10 18:00N 24°10' W 110°19'0 0.0
2018-Jan-10 17:29N 24°10' W 110°19'0 0.0
2018-Jan-10 17:00N 24°10' W 110°19'0 0.0
2018-Jan-10 16:30N 24°10' W 110°19'0 0.0
2018-Jan-10 16:00N 24°10' W 110°19'0 0.0
2018-Jan-10 15:29N 24°10' W 110°19'0 0.0
2018-Jan-10 15:00N 24°10' W 110°19'0 0.0
2018-Jan-10 14:27N 24°10' W 110°19'0 0.0
2018-Jan-10 13:59N 24°10' W 110°19'1 2.5
2018-Jan-10 13:30N 24°11' W 110°19'2 4.3
2018-Jan-10 12:59N 24°13' W 110°18'4 6.5
2018-Jan-10 12:27N 24°16' W 110°21'5 8.0
2018-Jan-10 11:47N 24°21' W 110°20'  
2018-Jan-08 03:57N 24°22' W 110°23'510.0
2018-Jan-08 03:29N 24°17' W 110°21'  

Dump ship's entire track history